South Woodstock, Connecticut
Current Conditions -  °F | °C
As of 7:52 PM on Wednesday 22 Oct 2014 (Local Time) from KIJD Reporting Station
Light Rain Light Rain  
Wind Chill: 50°   Ceiling: 1700
Heat Index: 50°   Visibility: 9mi
Dew Point: 46°   Wind: 23mph
Humidity: 86%   Direction: 20°NNE
Pressure: 29.79"   Gusts: 33mph
Location:  41.93°N, 71.96°W
Report Text: KIJD 222352Z AUTO 02020G29KT 9SM -RA BKN017 BKN023 OVC049 10/08 A2979 RMK AO2 PK WND 36030/2303 SLP086 P0008 60013 T01000078 10122 20100 56022
Loading
Personal Weather Stations






























Interactive Weather Map New forecast layout! Learn more

10-Day Weather Forecast

Advertisements
Track Severe Weather on mobile